sensor_id;sensor_type;location;lat;lon;timestamp;P1;durP1;ratioP1;P2;durP2;ratioP2
20511;SDS011;10414;52.074;5.126;2023-11-19T00:00:06;14.05;;;4.72;;
20511;SDS011;10414;52.074;5.126;2023-11-19T00:02:36;15.95;;;4.50;;
20511;SDS011;10414;52.074;5.126;2023-11-19T00:05:03;13.80;;;4.78;;
20511;SDS011;10414;52.074;5.126;2023-11-19T00:07:35;12.32;;;4.00;;
20511;SDS011;10414;52.074;5.126;2023-11-19T00:10:08;17.23;;;4.00;;
20511;SDS011;10414;52.074;5.126;2023-11-19T00:12:36;22.27;;;4.35;;
20511;SDS011;10414;52.074;5.126;2023-11-19T00:15:05;14.65;;;3.85;;
20511;SDS011;10414;52.074;5.126;2023-11-19T00:17:36;16.75;;;3.78;;
20511;SDS011;10414;52.074;5.126;2023-11-19T00:20:03;20.70;;;4.03;;
20511;SDS011;10414;52.074;5.126;2023-11-19T00:22:32;14.88;;;3.72;;
20511;SDS011;10414;52.074;5.126;2023-11-19T00:25:01;16.90;;;3.50;;
20511;SDS011;10414;52.074;5.126;2023-11-19T00:27:28;24.95;;;3.88;;
20511;SDS011;10414;52.074;5.126;2023-11-19T00:29:55;26.73;;;4.32;;
20511;SDS011;10414;52.074;5.126;2023-11-19T00:32:22;14.57;;;3.35;;
20511;SDS011;10414;52.074;5.126;2023-11-19T00:34:49;24.48;;;3.92;;
20511;SDS011;10414;52.074;5.126;2023-11-19T00:37:16;14.82;;;3.03;;
20511;SDS011;10414;52.074;5.126;2023-11-19T00:39:44;24.00;;;4.15;;
20511;SDS011;10414;52.074;5.126;2023-11-19T00:42:11;22.02;;;3.45;;
20511;SDS011;10414;52.074;5.126;2023-11-19T00:44:39;24.20;;;4.03;;
20511;SDS011;10414;52.074;5.126;2023-11-19T00:47:08;26.70;;;3.47;;
20511;SDS011;10414;52.074;5.126;2023-11-19T00:49:35;22.27;;;3.40;;
20511;SDS011;10414;52.074;5.126;2023-11-19T00:52:05;25.95;;;3.35;;
20511;SDS011;10414;52.074;5.126;2023-11-19T00:54:34;25.00;;;3.65;;
20511;SDS011;10414;52.074;5.126;2023-11-19T00:57:03;21.95;;;2.95;;
20511;SDS011;10414;52.074;5.126;2023-11-19T00:59:31;27.45;;;4.10;;
20511;SDS011;10414;52.074;5.126;2023-11-19T01:01:57;22.75;;;4.28;;
20511;SDS011;10414;52.074;5.126;2023-11-19T01:04:33;30.75;;;4.32;;
20511;SDS011;10414;52.074;5.126;2023-11-19T01:07:06;30.75;;;4.18;;
20511;SDS011;10414;52.074;5.126;2023-11-19T01:09:37;24.50;;;3.45;;
20511;SDS011;10414;52.074;5.126;2023-11-19T01:12:07;18.30;;;3.65;;
20511;SDS011;10414;52.074;5.126;2023-11-19T01:14:36;25.45;;;4.55;;
20511;SDS011;10414;52.074;5.126;2023-11-19T01:17:03;18.55;;;3.55;;
20511;SDS011;10414;52.074;5.126;2023-11-19T01:19:34;24.50;;;3.72;;
20511;SDS011;10414;52.074;5.126;2023-11-19T01:22:08;19.80;;;3.28;;
20511;SDS011;10414;52.074;5.126;2023-11-19T01:24:35;39.00;;;4.45;;
20511;SDS011;10414;52.074;5.126;2023-11-19T01:27:04;30.58;;;4.43;;
20511;SDS011;10414;52.074;5.126;2023-11-19T01:29:32;29.10;;;4.57;;
20511;SDS011;10414;52.074;5.126;2023-11-19T01:31:59;28.65;;;4.53;;
20511;SDS011;10414;52.074;5.126;2023-11-19T01:34:26;25.08;;;4.85;;
20511;SDS011;10414;52.074;5.126;2023-11-19T01:36:53;29.20;;;3.85;;
20511;SDS011;10414;52.074;5.126;2023-11-19T01:39:20;31.27;;;3.75;;
20511;SDS011;10414;52.074;5.126;2023-11-19T01:41:49;25.98;;;3.42;;
20511;SDS011;10414;52.074;5.126;2023-11-19T01:44:18;30.85;;;4.57;;
20511;SDS011;10414;52.074;5.126;2023-11-19T01:46:46;27.98;;;4.03;;
20511;SDS011;10414;52.074;5.126;2023-11-19T01:49:14;34.20;;;4.22;;
20511;SDS011;10414;52.074;5.126;2023-11-19T01:51:45;26.10;;;4.13;;
20511;SDS011;10414;52.074;5.126;2023-11-19T01:54:13;31.77;;;4.50;;
20511;SDS011;10414;52.074;5.126;2023-11-19T01:56:40;26.23;;;4.45;;
20511;SDS011;10414;52.074;5.126;2023-11-19T01:59:13;40.45;;;4.05;;
20511;SDS011;10414;52.074;5.126;2023-11-19T02:01:43;33.67;;;4.70;;
20511;SDS011;10414;52.074;5.126;2023-11-19T02:04:11;31.65;;;4.57;;
20511;SDS011;10414;52.074;5.126;2023-11-19T02:06:39;28.08;;;4.15;;
20511;SDS011;10414;52.074;5.126;2023-11-19T02:09:07;35.03;;;4.65;;
20511;SDS011;10414;52.074;5.126;2023-11-19T02:11:35;34.22;;;4.25;;
20511;SDS011;10414;52.074;5.126;2023-11-19T02:14:02;38.58;;;4.47;;
20511;SDS011;10414;52.074;5.126;2023-11-19T02:16:29;28.83;;;4.38;;
20511;SDS011;10414;52.074;5.126;2023-11-19T02:18:56;34.80;;;4.78;;
20511;SDS011;10414;52.074;5.126;2023-11-19T02:21:27;39.78;;;4.85;;
20511;SDS011;10414;52.074;5.126;2023-11-19T02:23:54;33.88;;;5.60;;
20511;SDS011;10414;52.074;5.126;2023-11-19T02:26:25;36.70;;;4.83;;
20511;SDS011;10414;52.074;5.126;2023-11-19T02:29:00;36.00;;;4.63;;
20511;SDS011;10414;52.074;5.126;2023-11-19T02:31:28;43.92;;;5.60;;
20511;SDS011;10414;52.074;5.126;2023-11-19T02:34:00;45.97;;;5.60;;
20511;SDS011;10414;52.074;5.126;2023-11-19T02:36:27;34.83;;;5.40;;
20511;SDS011;10414;52.074;5.126;2023-11-19T02:38:54;34.00;;;5.78;;
20511;SDS011;10414;52.074;5.126;2023-11-19T02:41:21;38.58;;;4.78;;
20511;SDS011;10414;52.074;5.126;2023-11-19T02:43:48;37.83;;;4.90;;
20511;SDS011;10414;52.074;5.126;2023-11-19T02:46:17;34.33;;;4.72;;
20511;SDS011;10414;52.074;5.126;2023-11-19T02:48:44;36.53;;;4.78;;
20511;SDS011;10414;52.074;5.126;2023-11-19T02:51:14;34.42;;;4.95;;
20511;SDS011;10414;52.074;5.126;2023-11-19T02:53:40;32.97;;;4.95;;
20511;SDS011;10414;52.074;5.126;2023-11-19T02:56:09;41.65;;;4.80;;
20511;SDS011;10414;52.074;5.126;2023-11-19T02:58:44;31.27;;;5.05;;
20511;SDS011;10414;52.074;5.126;2023-11-19T03:01:13;48.50;;;5.18;;
20511;SDS011;10414;52.074;5.126;2023-11-19T03:03:50;37.45;;;4.85;;
20511;SDS011;10414;52.074;5.126;2023-11-19T03:06:19;33.10;;;4.57;;
20511;SDS011;10414;52.074;5.126;2023-11-19T03:08:47;30.77;;;4.10;;
20511;SDS011;10414;52.074;5.126;2023-11-19T03:11:14;32.67;;;6.18;;
20511;SDS011;10414;52.074;5.126;2023-11-19T03:13:41;33.55;;;4.28;;
20511;SDS011;10414;52.074;5.126;2023-11-19T03:16:08;29.73;;;5.28;;
20511;SDS011;10414;52.074;5.126;2023-11-19T03:18:39;41.22;;;4.93;;
20511;SDS011;10414;52.074;5.126;2023-11-19T03:21:08;36.97;;;4.40;;
20511;SDS011;10414;52.074;5.126;2023-11-19T03:23:34;45.38;;;5.68;;
20511;SDS011;10414;52.074;5.126;2023-11-19T03:26:04;40.35;;;5.18;;
20511;SDS011;10414;52.074;5.126;2023-11-19T03:28:32;34.78;;;4.13;;
20511;SDS011;10414;52.074;5.126;2023-11-19T03:31:00;38.22;;;4.40;;
20511;SDS011;10414;52.074;5.126;2023-11-19T03:33:27;39.67;;;5.20;;
20511;SDS011;10414;52.074;5.126;2023-11-19T03:35:54;39.40;;;4.97;;
20511;SDS011;10414;52.074;5.126;2023-11-19T03:38:24;41.05;;;4.85;;
20511;SDS011;10414;52.074;5.126;2023-11-19T03:40:51;39.80;;;5.82;;
20511;SDS011;10414;52.074;5.126;2023-11-19T03:43:17;43.13;;;6.05;;
20511;SDS011;10414;52.074;5.126;2023-11-19T03:45:45;42.17;;;5.53;;
20511;SDS011;10414;52.074;5.126;2023-11-19T03:48:19;36.03;;;5.32;;
20511;SDS011;10414;52.074;5.126;2023-11-19T03:50:46;48.92;;;6.80;;
20511;SDS011;10414;52.074;5.126;2023-11-19T03:53:16;38.17;;;4.43;;
20511;SDS011;10414;52.074;5.126;2023-11-19T03:55:50;48.83;;;5.78;;
20511;SDS011;10414;52.074;5.126;2023-11-19T03:58:17;29.55;;;4.28;;
20511;SDS011;10414;52.074;5.126;2023-11-19T04:00:46;47.22;;;5.10;;
20511;SDS011;10414;52.074;5.126;2023-11-19T04:03:13;37.22;;;5.57;;
20511;SDS011;10414;52.074;5.126;2023-11-19T04:05:44;40.88;;;4.80;;
20511;SDS011;10414;52.074;5.126;2023-11-19T04:08:11;33.20;;;5.25;;
20511;SDS011;10414;52.074;5.126;2023-11-19T04:10:38;35.28;;;4.70;;
20511;SDS011;10414;52.074;5.126;2023-11-19T04:13:08;42.72;;;5.15;;
20511;SDS011;10414;52.074;5.126;2023-11-19T04:15:38;45.50;;;4.63;;
20511;SDS011;10414;52.074;5.126;2023-11-19T04:18:04;41.10;;;5.47;;
20511;SDS011;10414;52.074;5.126;2023-11-19T04:20:32;41.40;;;6.22;;
20511;SDS011;10414;52.074;5.126;2023-11-19T04:22:58;38.28;;;4.72;;
20511;SDS011;10414;52.074;5.126;2023-11-19T04:25:26;44.25;;;5.40;;
20511;SDS011;10414;52.074;5.126;2023-11-19T04:27:54;40.42;;;4.82;;
20511;SDS011;10414;52.074;5.126;2023-11-19T04:30:22;35.75;;;4.43;;
20511;SDS011;10414;52.074;5.126;2023-11-19T04:33:07;38.05;;;4.38;;
20511;SDS011;10414;52.074;5.126;2023-11-19T04:35:34;39.35;;;4.75;;
20511;SDS011;10414;52.074;5.126;2023-11-19T04:38:00;44.30;;;4.65;;
20511;SDS011;10414;52.074;5.126;2023-11-19T04:40:27;34.67;;;5.53;;
20511;SDS011;10414;52.074;5.126;2023-11-19T04:42:54;30.88;;;4.60;;
20511;SDS011;10414;52.074;5.126;2023-11-19T04:45:22;36.53;;;4.47;;
20511;SDS011;10414;52.074;5.126;2023-11-19T04:47:52;40.95;;;5.63;;
20511;SDS011;10414;52.074;5.126;2023-11-19T04:50:19;47.33;;;5.50;;
20511;SDS011;10414;52.074;5.126;2023-11-19T04:52:46;40.25;;;4.72;;
20511;SDS011;10414;52.074;5.126;2023-11-19T04:55:12;44.15;;;5.10;;
20511;SDS011;10414;52.074;5.126;2023-11-19T04:57:39;28.13;;;4.53;;
20511;SDS011;10414;52.074;5.126;2023-11-19T05:00:08;36.28;;;4.80;;
20511;SDS011;10414;52.074;5.126;2023-11-19T05:02:37;33.50;;;5.13;;
20511;SDS011;10414;52.074;5.126;2023-11-19T05:05:04;44.30;;;4.93;;
20511;SDS011;10414;52.074;5.126;2023-11-19T05:07:34;32.85;;;5.32;;
20511;SDS011;10414;52.074;5.126;2023-11-19T05:10:01;46.15;;;4.97;;
20511;SDS011;10414;52.074;5.126;2023-11-19T05:12:28;26.90;;;4.10;;
20511;SDS011;10414;52.074;5.126;2023-11-19T05:14:59;40.65;;;4.97;;
20511;SDS011;10414;52.074;5.126;2023-11-19T05:17:38;39.95;;;4.35;;
20511;SDS011;10414;52.074;5.126;2023-11-19T05:20:05;38.28;;;4.55;;
20511;SDS011;10414;52.074;5.126;2023-11-19T05:22:38;42.72;;;4.60;;
20511;SDS011;10414;52.074;5.126;2023-11-19T05:25:05;39.40;;;5.03;;
20511;SDS011;10414;52.074;5.126;2023-11-19T05:27:35;25.10;;;4.75;;
20511;SDS011;10414;52.074;5.126;2023-11-19T05:30:05;35.90;;;5.03;;
20511;SDS011;10414;52.074;5.126;2023-11-19T05:32:39;28.42;;;4.15;;
20511;SDS011;10414;52.074;5.126;2023-11-19T05:35:06;30.52;;;4.38;;
20511;SDS011;10414;52.074;5.126;2023-11-19T05:37:34;42.63;;;5.28;;
20511;SDS011;10414;52.074;5.126;2023-11-19T05:40:02;25.35;;;4.15;;
20511;SDS011;10414;52.074;5.126;2023-11-19T05:42:37;43.78;;;4.63;;
20511;SDS011;10414;52.074;5.126;2023-11-19T05:45:04;44.80;;;5.13;;
20511;SDS011;10414;52.074;5.126;2023-11-19T05:47:32;33.15;;;4.10;;
20511;SDS011;10414;52.074;5.126;2023-11-19T05:50:01;27.98;;;4.22;;
20511;SDS011;10414;52.074;5.126;2023-11-19T05:52:29;43.08;;;6.35;;
20511;SDS011;10414;52.074;5.126;2023-11-19T05:54:58;35.42;;;4.53;;
20511;SDS011;10414;52.074;5.126;2023-11-19T05:57:27;42.45;;;5.47;;
20511;SDS011;10414;52.074;5.126;2023-11-19T05:59:54;36.03;;;4.65;;
20511;SDS011;10414;52.074;5.126;2023-11-19T06:04:52;40.88;;;5.13;;
20511;SDS011;10414;52.074;5.126;2023-11-19T06:07:20;36.05;;;4.63;;
20511;SDS011;10414;52.074;5.126;2023-11-19T06:09:47;36.78;;;5.47;;
20511;SDS011;10414;52.074;5.126;2023-11-19T06:12:17;44.07;;;5.67;;
20511;SDS011;10414;52.074;5.126;2023-11-19T06:14:43;43.78;;;4.22;;
20511;SDS011;10414;52.074;5.126;2023-11-19T06:17:10;40.90;;;4.55;;
20511;SDS011;10414;52.074;5.126;2023-11-19T06:19:37;45.72;;;5.22;;
20511;SDS011;10414;52.074;5.126;2023-11-19T06:22:04;34.65;;;3.92;;
20511;SDS011;10414;52.074;5.126;2023-11-19T06:24:33;39.55;;;4.68;;
20511;SDS011;10414;52.074;5.126;2023-11-19T06:27:01;35.22;;;4.55;;
20511;SDS011;10414;52.074;5.126;2023-11-19T06:29:29;32.57;;;4.80;;
20511;SDS011;10414;52.074;5.126;2023-11-19T06:31:59;36.42;;;4.95;;
20511;SDS011;10414;52.074;5.126;2023-11-19T06:34:26;37.45;;;4.47;;
20511;SDS011;10414;52.074;5.126;2023-11-19T06:36:53;45.38;;;4.50;;
20511;SDS011;10414;52.074;5.126;2023-11-19T06:39:19;39.05;;;5.22;;
20511;SDS011;10414;52.074;5.126;2023-11-19T06:41:48;41.38;;;5.38;;
20511;SDS011;10414;52.074;5.126;2023-11-19T06:44:14;37.88;;;4.43;;
20511;SDS011;10414;52.074;5.126;2023-11-19T06:46:41;30.52;;;4.78;;
20511;SDS011;10414;52.074;5.126;2023-11-19T06:49:14;33.50;;;4.40;;
20511;SDS011;10414;52.074;5.126;2023-11-19T06:51:41;31.88;;;4.53;;
20511;SDS011;10414;52.074;5.126;2023-11-19T06:54:09;35.42;;;4.47;;
20511;SDS011;10414;52.074;5.126;2023-11-19T06:56:36;31.63;;;5.20;;
20511;SDS011;10414;52.074;5.126;2023-11-19T06:59:04;34.05;;;4.45;;
20511;SDS011;10414;52.074;5.126;2023-11-19T07:01:34;30.77;;;4.20;;
20511;SDS011;10414;52.074;5.126;2023-11-19T07:04:06;45.70;;;4.72;;
20511;SDS011;10414;52.074;5.126;2023-11-19T07:06:34;39.42;;;5.93;;
20511;SDS011;10414;52.074;5.126;2023-11-19T07:09:01;39.40;;;4.32;;
20511;SDS011;10414;52.074;5.126;2023-11-19T07:11:34;36.55;;;4.40;;
20511;SDS011;10414;52.074;5.126;2023-11-19T07:14:07;35.88;;;4.70;;
20511;SDS011;10414;52.074;5.126;2023-11-19T07:16:35;36.45;;;4.95;;
20511;SDS011;10414;52.074;5.126;2023-11-19T07:19:12;43.70;;;4.72;;
20511;SDS011;10414;52.074;5.126;2023-11-19T07:21:40;40.50;;;4.53;;
20511;SDS011;10414;52.074;5.126;2023-11-19T07:24:09;39.20;;;5.50;;
20511;SDS011;10414;52.074;5.126;2023-11-19T07:26:40;35.25;;;4.65;;
20511;SDS011;10414;52.074;5.126;2023-11-19T07:29:09;44.05;;;5.38;;
20511;SDS011;10414;52.074;5.126;2023-11-19T07:31:36;35.47;;;4.93;;
20511;SDS011;10414;52.074;5.126;2023-11-19T07:34:03;36.22;;;5.70;;
20511;SDS011;10414;52.074;5.126;2023-11-19T07:36:31;33.05;;;3.67;;
20511;SDS011;10414;52.074;5.126;2023-11-19T07:39:01;42.25;;;5.90;;
20511;SDS011;10414;52.074;5.126;2023-11-19T07:41:28;34.38;;;5.47;;
20511;SDS011;10414;52.074;5.126;2023-11-19T07:43:55;33.15;;;4.38;;
20511;SDS011;10414;52.074;5.126;2023-11-19T07:46:23;31.73;;;3.88;;
20511;SDS011;10414;52.074;5.126;2023-11-19T07:48:50;32.03;;;4.10;;
20511;SDS011;10414;52.074;5.126;2023-11-19T07:51:18;25.65;;;4.20;;
20511;SDS011;10414;52.074;5.126;2023-11-19T07:53:44;36.47;;;4.63;;
20511;SDS011;10414;52.074;5.126;2023-11-19T07:56:10;31.85;;;4.35;;
20511;SDS011;10414;52.074;5.126;2023-11-19T07:58:37;31.83;;;4.72;;
20511;SDS011;10414;52.074;5.126;2023-11-19T08:01:04;32.20;;;4.15;;
20511;SDS011;10414;52.074;5.126;2023-11-19T08:03:35;28.23;;;3.60;;
20511;SDS011;10414;52.074;5.126;2023-11-19T08:06:03;33.00;;;4.38;;
20511;SDS011;10414;52.074;5.126;2023-11-19T08:08:30;45.75;;;5.72;;
20511;SDS011;10414;52.074;5.126;2023-11-19T08:10:58;37.10;;;5.35;;
20511;SDS011;10414;52.074;5.126;2023-11-19T08:13:25;31.35;;;3.90;;
20511;SDS011;10414;52.074;5.126;2023-11-19T08:15:52;37.38;;;5.40;;
20511;SDS011;10414;52.074;5.126;2023-11-19T08:18:19;35.50;;;4.38;;
20511;SDS011;10414;52.074;5.126;2023-11-19T08:20:48;35.75;;;5.05;;
20511;SDS011;10414;52.074;5.126;2023-11-19T08:23:18;45.35;;;5.60;;
20511;SDS011;10414;52.074;5.126;2023-11-19T08:25:45;39.05;;;6.00;;
20511;SDS011;10414;52.074;5.126;2023-11-19T08:28:12;40.15;;;4.57;;
20511;SDS011;10414;52.074;5.126;2023-11-19T08:30:39;31.25;;;4.28;;
20511;SDS011;10414;52.074;5.126;2023-11-19T08:33:09;32.25;;;4.60;;
20511;SDS011;10414;52.074;5.126;2023-11-19T08:35:38;33.67;;;5.03;;
20511;SDS011;10414;52.074;5.126;2023-11-19T08:38:09;35.67;;;6.57;;
20511;SDS011;10414;52.074;5.126;2023-11-19T08:40:36;27.80;;;4.18;;
20511;SDS011;10414;52.074;5.126;2023-11-19T08:43:06;37.97;;;5.75;;
20511;SDS011;10414;52.074;5.126;2023-11-19T08:45:33;31.17;;;4.13;;
20511;SDS011;10414;52.074;5.126;2023-11-19T08:48:01;30.00;;;3.95;;
20511;SDS011;10414;52.074;5.126;2023-11-19T08:50:28;36.28;;;4.25;;
20511;SDS011;10414;52.074;5.126;2023-11-19T08:52:57;38.53;;;4.57;;
20511;SDS011;10414;52.074;5.126;2023-11-19T08:55:27;22.77;;;4.07;;
20511;SDS011;10414;52.074;5.126;2023-11-19T08:57:54;37.25;;;4.55;;
20511;SDS011;10414;52.074;5.126;2023-11-19T09:00:21;32.95;;;4.68;;
20511;SDS011;10414;52.074;5.126;2023-11-19T09:02:48;27.90;;;4.20;;
20511;SDS011;10414;52.074;5.126;2023-11-19T09:05:15;31.60;;;4.00;;
20511;SDS011;10414;52.074;5.126;2023-11-19T09:07:42;26.20;;;3.80;;
20511;SDS011;10414;52.074;5.126;2023-11-19T09:10:09;28.50;;;3.97;;
20511;SDS011;10414;52.074;5.126;2023-11-19T09:12:39;32.95;;;3.97;;
20511;SDS011;10414;52.074;5.126;2023-11-19T09:15:06;27.52;;;4.88;;
20511;SDS011;10414;52.074;5.126;2023-11-19T09:17:35;27.87;;;3.57;;
20511;SDS011;10414;52.074;5.126;2023-11-19T09:20:02;22.40;;;4.00;;
20511;SDS011;10414;52.074;5.126;2023-11-19T09:22:33;32.92;;;5.55;;
20511;SDS011;10414;52.074;5.126;2023-11-19T09:25:00;36.22;;;4.93;;
20511;SDS011;10414;52.074;5.126;2023-11-19T09:27:26;34.13;;;4.47;;
20511;SDS011;10414;52.074;5.126;2023-11-19T09:29:55;30.95;;;4.50;;
20511;SDS011;10414;52.074;5.126;2023-11-19T09:32:24;29.05;;;3.60;;
20511;SDS011;10414;52.074;5.126;2023-11-19T09:34:50;30.98;;;4.32;;
20511;SDS011;10414;52.074;5.126;2023-11-19T09:37:17;31.05;;;4.72;;
20511;SDS011;10414;52.074;5.126;2023-11-19T09:39:45;24.95;;;4.03;;
20511;SDS011;10414;52.074;5.126;2023-11-19T09:42:14;29.42;;;4.68;;
20511;SDS011;10414;52.074;5.126;2023-11-19T09:44:43;33.88;;;4.30;;
20511;SDS011;10414;52.074;5.126;2023-11-19T09:47:12;42.85;;;4.78;;
20511;SDS011;10414;52.074;5.126;2023-11-19T09:49:41;34.83;;;4.10;;
20511;SDS011;10414;52.074;5.126;2023-11-19T09:52:08;27.98;;;5.20;;
20511;SDS011;10414;52.074;5.126;2023-11-19T09:54:38;32.80;;;4.93;;
20511;SDS011;10414;52.074;5.126;2023-11-19T09:57:04;35.10;;;4.95;;
20511;SDS011;10414;52.074;5.126;2023-11-19T09:59:35;31.90;;;4.00;;
20511;SDS011;10414;52.074;5.126;2023-11-19T10:02:03;32.50;;;4.10;;
20511;SDS011;10414;52.074;5.126;2023-11-19T10:04:31;34.47;;;4.15;;
20511;SDS011;10414;52.074;5.126;2023-11-19T10:07:01;31.33;;;5.55;;
20511;SDS011;10414;52.074;5.126;2023-11-19T10:09:28;22.55;;;3.25;;
20511;SDS011;10414;52.074;5.126;2023-11-19T10:11:55;29.05;;;3.70;;
20511;SDS011;10414;52.074;5.126;2023-11-19T10:14:22;26.77;;;3.75;;
20511;SDS011;10414;52.074;5.126;2023-11-19T10:16:50;28.73;;;4.78;;
20511;SDS011;10414;52.074;5.126;2023-11-19T10:19:20;28.50;;;4.72;;
20511;SDS011;10414;52.074;5.126;2023-11-19T10:21:49;35.88;;;5.00;;
20511;SDS011;10414;52.074;5.126;2023-11-19T10:24:16;26.90;;;4.10;;
20511;SDS011;10414;52.074;5.126;2023-11-19T10:26:57;26.52;;;3.85;;
20511;SDS011;10414;52.074;5.126;2023-11-19T10:29:24;26.90;;;4.38;;
20511;SDS011;10414;52.074;5.126;2023-11-19T10:31:57;26.77;;;4.32;;
20511;SDS011;10414;52.074;5.126;2023-11-19T10:34:25;31.67;;;4.40;;
20511;SDS011;10414;52.074;5.126;2023-11-19T10:36:54;27.48;;;4.25;;
20511;SDS011;10414;52.074;5.126;2023-11-19T10:39:22;30.35;;;4.13;;
20511;SDS011;10414;52.074;5.126;2023-11-19T10:41:49;28.05;;;5.55;;
20511;SDS011;10414;52.074;5.126;2023-11-19T10:44:33;19.58;;;3.33;;
20511;SDS011;10414;52.074;5.126;2023-11-19T10:47:01;21.75;;;4.18;;
20511;SDS011;10414;52.074;5.126;2023-11-19T10:49:28;22.15;;;3.45;;
20511;SDS011;10414;52.074;5.126;2023-11-19T10:51:58;26.85;;;4.45;;
20511;SDS011;10414;52.074;5.126;2023-11-19T10:54:25;23.05;;;3.60;;
20511;SDS011;10414;52.074;5.126;2023-11-19T10:56:54;33.83;;;4.38;;
20511;SDS011;10414;52.074;5.126;2023-11-19T10:59:25;24.85;;;4.40;;
20511;SDS011;10414;52.074;5.126;2023-11-19T11:01:54;27.95;;;4.28;;
20511;SDS011;10414;52.074;5.126;2023-11-19T11:04:23;25.52;;;4.63;;
20511;SDS011;10414;52.074;5.126;2023-11-19T11:06:53;26.35;;;3.83;;
20511;SDS011;10414;52.074;5.126;2023-11-19T11:09:24;25.65;;;4.38;;
20511;SDS011;10414;52.074;5.126;2023-11-19T11:11:53;33.10;;;4.75;;
20511;SDS011;10414;52.074;5.126;2023-11-19T11:14:22;29.10;;;4.13;;
20511;SDS011;10414;52.074;5.126;2023-11-19T11:16:51;22.00;;;3.63;;
20511;SDS011;10414;52.074;5.126;2023-11-19T11:19:19;29.15;;;4.00;;
20511;SDS011;10414;52.074;5.126;2023-11-19T11:21:47;20.13;;;4.03;;
20511;SDS011;10414;52.074;5.126;2023-11-19T11:24:26;31.15;;;3.83;;
20511;SDS011;10414;52.074;5.126;2023-11-19T11:27:30;25.58;;;3.28;;
20511;SDS011;10414;52.074;5.126;2023-11-19T11:30:19;28.10;;;4.00;;
20511;SDS011;10414;52.074;5.126;2023-11-19T11:32:54;27.40;;;4.55;;
20511;SDS011;10414;52.074;5.126;2023-11-19T11:35:34;26.13;;;3.92;;
20511;SDS011;10414;52.074;5.126;2023-11-19T11:38:12;26.73;;;4.13;;
20511;SDS011;10414;52.074;5.126;2023-11-19T11:40:42;27.02;;;3.88;;
20511;SDS011;10414;52.074;5.126;2023-11-19T11:46:06;29.08;;;3.47;;
20511;SDS011;10414;52.074;5.126;2023-11-19T11:48:35;25.58;;;3.92;;
20511;SDS011;10414;52.074;5.126;2023-11-19T11:51:12;30.55;;;3.90;;
20511;SDS011;10414;52.074;5.126;2023-11-19T11:53:38;32.25;;;4.45;;
20511;SDS011;10414;52.074;5.126;2023-11-19T11:56:09;24.63;;;3.77;;
20511;SDS011;10414;52.074;5.126;2023-11-19T11:58:36;29.33;;;4.57;;
20511;SDS011;10414;52.074;5.126;2023-11-19T12:01:07;28.00;;;4.15;;
20511;SDS011;10414;52.074;5.126;2023-11-19T12:03:34;26.10;;;3.25;;
20511;SDS011;10414;52.074;5.126;2023-11-19T12:06:04;20.42;;;3.33;;
20511;SDS011;10414;52.074;5.126;2023-11-19T12:08:33;18.10;;;3.03;;
20511;SDS011;10414;52.074;5.126;2023-11-19T12:11:01;17.83;;;3.00;;
20511;SDS011;10414;52.074;5.126;2023-11-19T12:13:46;24.60;;;3.60;;
20511;SDS011;10414;52.074;5.126;2023-11-19T12:16:22;25.65;;;3.45;;
20511;SDS011;10414;52.074;5.126;2023-11-19T12:18:49;24.33;;;3.58;;
20511;SDS011;10414;52.074;5.126;2023-11-19T12:21:28;18.55;;;3.33;;
20511;SDS011;10414;52.074;5.126;2023-11-19T12:23:57;27.60;;;3.10;;
20511;SDS011;10414;52.074;5.126;2023-11-19T12:26:32;26.05;;;3.40;;
20511;SDS011;10414;52.074;5.126;2023-11-19T12:29:02;24.08;;;3.25;;
20511;SDS011;10414;52.074;5.126;2023-11-19T12:31:34;25.63;;;4.07;;
20511;SDS011;10414;52.074;5.126;2023-11-19T12:34:07;19.13;;;2.78;;
20511;SDS011;10414;52.074;5.126;2023-11-19T12:36:36;25.15;;;3.20;;
20511;SDS011;10414;52.074;5.126;2023-11-19T12:39:05;29.45;;;3.92;;
20511;SDS011;10414;52.074;5.126;2023-11-19T12:41:32;28.27;;;4.05;;
20511;SDS011;10414;52.074;5.126;2023-11-19T12:44:16;23.13;;;3.30;;
20511;SDS011;10414;52.074;5.126;2023-11-19T12:46:45;31.83;;;3.78;;
20511;SDS011;10414;52.074;5.126;2023-11-19T12:49:12;17.17;;;2.92;;
20511;SDS011;10414;52.074;5.126;2023-11-19T12:51:41;26.35;;;4.03;;
20511;SDS011;10414;52.074;5.126;2023-11-19T12:54:08;25.08;;;3.75;;
20511;SDS011;10414;52.074;5.126;2023-11-19T12:56:35;33.17;;;3.47;;
20511;SDS011;10414;52.074;5.126;2023-11-19T12:59:12;25.85;;;3.72;;
20511;SDS011;10414;52.074;5.126;2023-11-19T13:01:53;24.60;;;3.60;;
20511;SDS011;10414;52.074;5.126;2023-11-19T13:04:20;25.13;;;3.10;;
20511;SDS011;10414;52.074;5.126;2023-11-19T13:06:47;24.05;;;3.67;;
20511;SDS011;10414;52.074;5.126;2023-11-19T13:12:14;21.80;;;3.03;;
20511;SDS011;10414;52.074;5.126;2023-11-19T13:14:43;30.73;;;4.65;;
20511;SDS011;10414;52.074;5.126;2023-11-19T13:17:15;28.75;;;3.97;;
20511;SDS011;10414;52.074;5.126;2023-11-19T13:19:41;29.33;;;3.33;;
20511;SDS011;10414;52.074;5.126;2023-11-19T13:22:08;25.42;;;4.03;;
20511;SDS011;10414;52.074;5.126;2023-11-19T13:24:35;24.65;;;3.97;;
20511;SDS011;10414;52.074;5.126;2023-11-19T13:27:02;25.98;;;3.38;;
20511;SDS011;10414;52.074;5.126;2023-11-19T13:29:29;28.13;;;3.67;;
20511;SDS011;10414;52.074;5.126;2023-11-19T13:32:00;31.05;;;3.17;;
20511;SDS011;10414;52.074;5.126;2023-11-19T13:34:29;27.70;;;3.17;;
20511;SDS011;10414;52.074;5.126;2023-11-19T13:36:56;26.40;;;3.75;;
20511;SDS011;10414;52.074;5.126;2023-11-19T13:39:23;34.70;;;4.03;;
20511;SDS011;10414;52.074;5.126;2023-11-19T13:42:08;30.45;;;4.57;;
20511;SDS011;10414;52.074;5.126;2023-11-19T13:44:35;28.33;;;3.87;;
20511;SDS011;10414;52.074;5.126;2023-11-19T13:47:10;27.88;;;3.42;;
20511;SDS011;10414;52.074;5.126;2023-11-19T13:49:39;29.85;;;4.90;;
20511;SDS011;10414;52.074;5.126;2023-11-19T13:52:05;21.45;;;3.33;;
20511;SDS011;10414;52.074;5.126;2023-11-19T13:54:32;29.05;;;3.38;;
20511;SDS011;10414;52.074;5.126;2023-11-19T13:57:01;24.52;;;3.58;;
20511;SDS011;10414;52.074;5.126;2023-11-19T13:59:37;21.60;;;3.60;;
20511;SDS011;10414;52.074;5.126;2023-11-19T14:02:05;24.98;;;3.55;;
20511;SDS011;10414;52.074;5.126;2023-11-19T14:04:34;26.08;;;3.80;;
20511;SDS011;10414;52.074;5.126;2023-11-19T14:07:00;30.52;;;3.30;;
20511;SDS011;10414;52.074;5.126;2023-11-19T14:09:28;19.65;;;3.20;;
20511;SDS011;10414;52.074;5.126;2023-11-19T14:11:58;21.00;;;3.42;;
20511;SDS011;10414;52.074;5.126;2023-11-19T14:14:24;29.77;;;3.05;;
20511;SDS011;10414;52.074;5.126;2023-11-19T14:16:53;33.90;;;3.80;;
20511;SDS011;10414;52.074;5.126;2023-11-19T14:19:20;26.77;;;3.28;;
20511;SDS011;10414;52.074;5.126;2023-11-19T14:21:48;19.42;;;2.72;;
20511;SDS011;10414;52.074;5.126;2023-11-19T14:24:21;27.92;;;3.35;;
20511;SDS011;10414;52.074;5.126;2023-11-19T14:26:50;22.52;;;3.00;;
20511;SDS011;10414;52.074;5.126;2023-11-19T14:29:17;22.13;;;3.80;;
20511;SDS011;10414;52.074;5.126;2023-11-19T14:31:44;32.33;;;3.72;;
20511;SDS011;10414;52.074;5.126;2023-11-19T14:34:11;28.85;;;3.30;;
20511;SDS011;10414;52.074;5.126;2023-11-19T14:36:38;28.55;;;3.92;;
20511;SDS011;10414;52.074;5.126;2023-11-19T14:39:07;20.77;;;3.22;;
20511;SDS011;10414;52.074;5.126;2023-11-19T14:41:34;22.25;;;3.45;;
20511;SDS011;10414;52.074;5.126;2023-11-19T14:44:01;24.60;;;3.53;;
20511;SDS011;10414;52.074;5.126;2023-11-19T14:46:30;27.27;;;3.78;;
20511;SDS011;10414;52.074;5.126;2023-11-19T14:48:57;26.17;;;4.65;;
20511;SDS011;10414;52.074;5.126;2023-11-19T14:51:25;24.45;;;3.65;;